sensor_id;sensor_type;location;lat;lon;timestamp;P1;durP1;ratioP1;P2;durP2;ratioP2
68938;SDS011;59064;45.294;11.816;2023-06-22T00:01:52;23.50;;;19.20;;
68938;SDS011;59064;45.294;11.816;2023-06-22T00:04:17;25.30;;;19.00;;
68938;SDS011;59064;45.294;11.816;2023-06-22T00:06:42;22.80;;;18.50;;
68938;SDS011;59064;45.294;11.816;2023-06-22T00:09:08;25.20;;;18.90;;
68938;SDS011;59064;45.294;11.816;2023-06-22T00:11:35;25.50;;;19.20;;
68938;SDS011;59064;45.294;11.816;2023-06-22T00:14:01;26.20;;;19.40;;
68938;SDS011;59064;45.294;11.816;2023-06-22T00:16:27;20.60;;;15.00;;
68938;SDS011;59064;45.294;11.816;2023-06-22T00:18:53;24.40;;;19.30;;
68938;SDS011;59064;45.294;11.816;2023-06-22T00:21:18;24.70;;;22.00;;
68938;SDS011;59064;45.294;11.816;2023-06-22T00:23:45;26.20;;;21.50;;
68938;SDS011;59064;45.294;11.816;2023-06-22T00:26:12;21.50;;;18.10;;
68938;SDS011;59064;45.294;11.816;2023-06-22T00:28:38;20.90;;;17.60;;
68938;SDS011;59064;45.294;11.816;2023-06-22T00:31:04;26.70;;;19.20;;
68938;SDS011;59064;45.294;11.816;2023-06-22T00:33:29;23.10;;;18.60;;
68938;SDS011;59064;45.294;11.816;2023-06-22T00:35:55;23.90;;;19.20;;
68938;SDS011;59064;45.294;11.816;2023-06-22T00:38:20;27.20;;;20.90;;
68938;SDS011;59064;45.294;11.816;2023-06-22T00:40:46;24.90;;;18.90;;
68938;SDS011;59064;45.294;11.816;2023-06-22T00:43:11;27.30;;;19.70;;
68938;SDS011;59064;45.294;11.816;2023-06-22T00:45:37;21.90;;;17.10;;
68938;SDS011;59064;45.294;11.816;2023-06-22T00:48:03;21.70;;;16.40;;
68938;SDS011;59064;45.294;11.816;2023-06-22T00:50:30;25.10;;;18.10;;
68938;SDS011;59064;45.294;11.816;2023-06-22T00:53:01;25.00;;;20.70;;
68938;SDS011;59064;45.294;11.816;2023-06-22T00:55:33;25.90;;;19.90;;
68938;SDS011;59064;45.294;11.816;2023-06-22T00:58:02;20.00;;;16.60;;
68938;SDS011;59064;45.294;11.816;2023-06-22T01:00:30;25.20;;;19.80;;
68938;SDS011;59064;45.294;11.816;2023-06-22T01:02:57;19.20;;;15.10;;
68938;SDS011;59064;45.294;11.816;2023-06-22T01:05:23;23.40;;;17.90;;
68938;SDS011;59064;45.294;11.816;2023-06-22T01:16:25;24.50;;;18.90;;
68938;SDS011;59064;45.294;11.816;2023-06-22T01:18:54;20.00;;;15.50;;
68938;SDS011;59064;45.294;11.816;2023-06-22T01:21:22;18.20;;;14.70;;
68938;SDS011;59064;45.294;11.816;2023-06-22T01:29:05;24.10;;;20.30;;
68938;SDS011;59064;45.294;11.816;2023-06-22T01:31:32;28.50;;;21.90;;
68938;SDS011;59064;45.294;11.816;2023-06-22T01:34:01;23.40;;;19.60;;
68938;SDS011;59064;45.294;11.816;2023-06-22T01:36:29;25.20;;;20.00;;
68938;SDS011;59064;45.294;11.816;2023-06-22T01:38:56;22.90;;;18.40;;
68938;SDS011;59064;45.294;11.816;2023-06-22T01:41:24;25.70;;;20.10;;
68938;SDS011;59064;45.294;11.816;2023-06-22T01:43:50;31.00;;;24.40;;
68938;SDS011;59064;45.294;11.816;2023-06-22T01:46:17;30.40;;;24.50;;
68938;SDS011;59064;45.294;11.816;2023-06-22T01:48:45;30.90;;;23.30;;
68938;SDS011;59064;45.294;11.816;2023-06-22T01:51:11;29.60;;;23.40;;
68938;SDS011;59064;45.294;11.816;2023-06-22T01:53:37;28.90;;;21.90;;
68938;SDS011;59064;45.294;11.816;2023-06-22T01:56:03;29.00;;;22.10;;
68938;SDS011;59064;45.294;11.816;2023-06-22T01:58:29;29.30;;;21.90;;
68938;SDS011;59064;45.294;11.816;2023-06-22T02:00:59;25.90;;;21.50;;
68938;SDS011;59064;45.294;11.816;2023-06-22T02:03:34;28.50;;;22.80;;
68938;SDS011;59064;45.294;11.816;2023-06-22T02:06:06;29.00;;;23.10;;
68938;SDS011;59064;45.294;11.816;2023-06-22T02:08:40;26.40;;;21.20;;
68938;SDS011;59064;45.294;11.816;2023-06-22T02:11:09;27.80;;;21.20;;
68938;SDS011;59064;45.294;11.816;2023-06-22T02:13:37;25.10;;;19.60;;
68938;SDS011;59064;45.294;11.816;2023-06-22T02:16:07;26.70;;;21.40;;
68938;SDS011;59064;45.294;11.816;2023-06-22T02:18:34;27.40;;;20.70;;
68938;SDS011;59064;45.294;11.816;2023-06-22T02:21:01;28.30;;;22.00;;
68938;SDS011;59064;45.294;11.816;2023-06-22T02:23:27;33.70;;;23.30;;
68938;SDS011;59064;45.294;11.816;2023-06-22T02:25:53;29.30;;;22.50;;
68938;SDS011;59064;45.294;11.816;2023-06-22T02:28:18;31.20;;;22.10;;
68938;SDS011;59064;45.294;11.816;2023-06-22T02:30:44;28.10;;;22.40;;
68938;SDS011;59064;45.294;11.816;2023-06-22T02:33:09;23.80;;;18.50;;
68938;SDS011;59064;45.294;11.816;2023-06-22T02:35:35;28.90;;;20.80;;
68938;SDS011;59064;45.294;11.816;2023-06-22T02:38:02;34.10;;;25.50;;
68938;SDS011;59064;45.294;11.816;2023-06-22T02:40:29;25.50;;;18.80;;
68938;SDS011;59064;45.294;11.816;2023-06-22T02:42:55;26.10;;;19.20;;
68938;SDS011;59064;45.294;11.816;2023-06-22T02:45:23;22.70;;;19.00;;
68938;SDS011;59064;45.294;11.816;2023-06-22T02:47:48;27.40;;;22.70;;
68938;SDS011;59064;45.294;11.816;2023-06-22T02:50:14;28.20;;;23.10;;
68938;SDS011;59064;45.294;11.816;2023-06-22T02:52:39;29.60;;;21.70;;
68938;SDS011;59064;45.294;11.816;2023-06-22T02:55:05;24.20;;;18.40;;
68938;SDS011;59064;45.294;11.816;2023-06-22T02:57:32;23.60;;;19.70;;
68938;SDS011;59064;45.294;11.816;2023-06-22T02:59:58;29.00;;;22.60;;
68938;SDS011;59064;45.294;11.816;2023-06-22T03:02:23;31.30;;;22.50;;
68938;SDS011;59064;45.294;11.816;2023-06-22T03:04:49;28.00;;;22.00;;
68938;SDS011;59064;45.294;11.816;2023-06-22T03:07:15;28.30;;;22.70;;
68938;SDS011;59064;45.294;11.816;2023-06-22T03:09:42;26.10;;;20.50;;
68938;SDS011;59064;45.294;11.816;2023-06-22T03:12:08;28.20;;;21.40;;
68938;SDS011;59064;45.294;11.816;2023-06-22T03:14:33;29.30;;;23.50;;
68938;SDS011;59064;45.294;11.816;2023-06-22T03:16:59;28.30;;;23.20;;
68938;SDS011;59064;45.294;11.816;2023-06-22T03:19:28;29.90;;;23.80;;
68938;SDS011;59064;45.294;11.816;2023-06-22T03:21:54;26.00;;;21.40;;
68938;SDS011;59064;45.294;11.816;2023-06-22T03:24:20;27.60;;;22.50;;
68938;SDS011;59064;45.294;11.816;2023-06-22T03:26:46;26.10;;;19.40;;
68938;SDS011;59064;45.294;11.816;2023-06-22T03:29:11;27.10;;;21.90;;
68938;SDS011;59064;45.294;11.816;2023-06-22T03:31:37;30.50;;;24.90;;
68938;SDS011;59064;45.294;11.816;2023-06-22T03:34:03;34.10;;;23.50;;
68938;SDS011;59064;45.294;11.816;2023-06-22T03:36:28;32.90;;;25.50;;
68938;SDS011;59064;45.294;11.816;2023-06-22T03:38:54;25.80;;;20.20;;
68938;SDS011;59064;45.294;11.816;2023-06-22T03:41:20;25.20;;;20.20;;
68938;SDS011;59064;45.294;11.816;2023-06-22T03:43:45;31.00;;;23.90;;
68938;SDS011;59064;45.294;11.816;2023-06-22T03:46:10;27.10;;;21.70;;
68938;SDS011;59064;45.294;11.816;2023-06-22T03:48:36;32.00;;;22.80;;
68938;SDS011;59064;45.294;11.816;2023-06-22T03:51:02;28.70;;;22.60;;
68938;SDS011;59064;45.294;11.816;2023-06-22T03:53:28;34.50;;;25.60;;
68938;SDS011;59064;45.294;11.816;2023-06-22T03:55:54;29.60;;;21.80;;
68938;SDS011;59064;45.294;11.816;2023-06-22T03:58:20;29.70;;;24.00;;
68938;SDS011;59064;45.294;11.816;2023-06-22T04:00:46;30.10;;;21.10;;
68938;SDS011;59064;45.294;11.816;2023-06-22T04:03:13;31.30;;;23.90;;
68938;SDS011;59064;45.294;11.816;2023-06-22T04:05:39;32.90;;;24.10;;
68938;SDS011;59064;45.294;11.816;2023-06-22T04:08:05;29.30;;;24.00;;
68938;SDS011;59064;45.294;11.816;2023-06-22T04:10:30;36.70;;;26.80;;
68938;SDS011;59064;45.294;11.816;2023-06-22T04:12:56;30.10;;;24.00;;
68938;SDS011;59064;45.294;11.816;2023-06-22T04:15:21;31.30;;;23.50;;
68938;SDS011;59064;45.294;11.816;2023-06-22T04:17:47;31.60;;;25.20;;
68938;SDS011;59064;45.294;11.816;2023-06-22T04:20:12;34.10;;;24.40;;
68938;SDS011;59064;45.294;11.816;2023-06-22T04:22:38;33.90;;;25.60;;
68938;SDS011;59064;45.294;11.816;2023-06-22T04:25:05;32.40;;;23.70;;
68938;SDS011;59064;45.294;11.816;2023-06-22T04:27:32;29.90;;;24.10;;
68938;SDS011;59064;45.294;11.816;2023-06-22T04:30:05;29.20;;;23.10;;
68938;SDS011;59064;45.294;11.816;2023-06-22T04:32:33;33.90;;;24.20;;
68938;SDS011;59064;45.294;11.816;2023-06-22T04:35:01;30.10;;;23.10;;
68938;SDS011;59064;45.294;11.816;2023-06-22T04:37:30;31.80;;;23.50;;
68938;SDS011;59064;45.294;11.816;2023-06-22T04:39:55;31.70;;;23.40;;
68938;SDS011;59064;45.294;11.816;2023-06-22T04:42:21;24.60;;;20.70;;
68938;SDS011;59064;45.294;11.816;2023-06-22T04:44:46;24.20;;;18.40;;
68938;SDS011;59064;45.294;11.816;2023-06-22T04:47:13;29.30;;;19.70;;
68938;SDS011;59064;45.294;11.816;2023-06-22T04:49:38;30.80;;;22.10;;
68938;SDS011;59064;45.294;11.816;2023-06-22T04:52:09;26.60;;;20.30;;
68938;SDS011;59064;45.294;11.816;2023-06-22T04:54:37;22.90;;;17.90;;
68938;SDS011;59064;45.294;11.816;2023-06-22T04:57:06;21.60;;;17.60;;
68938;SDS011;59064;45.294;11.816;2023-06-22T04:59:35;28.30;;;21.50;;
68938;SDS011;59064;45.294;11.816;2023-06-22T05:02:04;28.00;;;20.50;;
68938;SDS011;59064;45.294;11.816;2023-06-22T05:04:30;23.70;;;20.30;;
68938;SDS011;59064;45.294;11.816;2023-06-22T05:06:57;21.00;;;16.20;;
68938;SDS011;59064;45.294;11.816;2023-06-22T05:09:23;28.40;;;21.30;;
68938;SDS011;59064;45.294;11.816;2023-06-22T05:11:50;26.60;;;19.40;;
68938;SDS011;59064;45.294;11.816;2023-06-22T05:14:16;23.70;;;18.70;;
68938;SDS011;59064;45.294;11.816;2023-06-22T05:16:42;24.20;;;19.30;;
68938;SDS011;59064;45.294;11.816;2023-06-22T05:19:08;22.30;;;18.90;;
68938;SDS011;59064;45.294;11.816;2023-06-22T05:21:34;25.20;;;18.40;;
68938;SDS011;59064;45.294;11.816;2023-06-22T05:24:00;19.00;;;15.30;;
68938;SDS011;59064;45.294;11.816;2023-06-22T05:26:27;22.50;;;17.40;;
68938;SDS011;59064;45.294;11.816;2023-06-22T05:28:54;22.90;;;17.30;;
68938;SDS011;59064;45.294;11.816;2023-06-22T05:31:19;18.80;;;14.50;;
68938;SDS011;59064;45.294;11.816;2023-06-22T05:33:46;17.40;;;14.30;;
68938;SDS011;59064;45.294;11.816;2023-06-22T05:36:12;19.60;;;16.90;;
68938;SDS011;59064;45.294;11.816;2023-06-22T05:38:39;22.50;;;15.30;;
68938;SDS011;59064;45.294;11.816;2023-06-22T05:41:05;19.00;;;14.30;;
68938;SDS011;59064;45.294;11.816;2023-06-22T05:43:31;19.80;;;15.70;;
68938;SDS011;59064;45.294;11.816;2023-06-22T05:45:57;19.20;;;15.10;;
68938;SDS011;59064;45.294;11.816;2023-06-22T05:48:23;18.20;;;14.60;;
68938;SDS011;59064;45.294;11.816;2023-06-22T05:50:49;22.00;;;15.50;;
68938;SDS011;59064;45.294;11.816;2023-06-22T05:53:14;17.90;;;16.00;;
68938;SDS011;59064;45.294;11.816;2023-06-22T05:55:40;20.70;;;14.60;;
68938;SDS011;59064;45.294;11.816;2023-06-22T05:58:06;18.40;;;14.90;;
68938;SDS011;59064;45.294;11.816;2023-06-22T06:00:31;17.50;;;14.10;;
68938;SDS011;59064;45.294;11.816;2023-06-22T06:02:57;21.90;;;16.20;;
68938;SDS011;59064;45.294;11.816;2023-06-22T06:05:29;17.90;;;15.20;;
68938;SDS011;59064;45.294;11.816;2023-06-22T06:07:54;16.00;;;13.50;;
68938;SDS011;59064;45.294;11.816;2023-06-22T06:10:20;14.10;;;10.80;;
68938;SDS011;59064;45.294;11.816;2023-06-22T06:12:46;15.90;;;12.20;;
68938;SDS011;59064;45.294;11.816;2023-06-22T06:15:11;19.10;;;14.30;;
68938;SDS011;59064;45.294;11.816;2023-06-22T06:17:44;16.50;;;13.20;;
68938;SDS011;59064;45.294;11.816;2023-06-22T06:20:18;14.00;;;10.50;;
68938;SDS011;59064;45.294;11.816;2023-06-22T06:22:45;15.80;;;13.00;;
68938;SDS011;59064;45.294;11.816;2023-06-22T06:25:10;14.90;;;10.60;;
68938;SDS011;59064;45.294;11.816;2023-06-22T06:27:41;13.20;;;9.70;;
68938;SDS011;59064;45.294;11.816;2023-06-22T06:30:07;11.40;;;9.60;;
68938;SDS011;59064;45.294;11.816;2023-06-22T06:32:33;11.30;;;8.20;;
68938;SDS011;59064;45.294;11.816;2023-06-22T06:34:58;13.40;;;10.30;;
68938;SDS011;59064;45.294;11.816;2023-06-22T06:37:24;11.70;;;10.10;;
68938;SDS011;59064;45.294;11.816;2023-06-22T06:39:49;12.10;;;9.60;;
68938;SDS011;59064;45.294;11.816;2023-06-22T06:42:14;16.60;;;11.50;;
68938;SDS011;59064;45.294;11.816;2023-06-22T06:44:40;13.00;;;8.50;;
68938;SDS011;59064;45.294;11.816;2023-06-22T06:47:06;14.50;;;11.50;;
68938;SDS011;59064;45.294;11.816;2023-06-22T06:49:32;11.70;;;9.80;;
68938;SDS011;59064;45.294;11.816;2023-06-22T06:51:58;12.90;;;9.20;;
68938;SDS011;59064;45.294;11.816;2023-06-22T06:54:24;12.30;;;9.80;;
68938;SDS011;59064;45.294;11.816;2023-06-22T06:56:49;13.80;;;11.50;;
68938;SDS011;59064;45.294;11.816;2023-06-22T06:59:14;14.60;;;11.60;;
68938;SDS011;59064;45.294;11.816;2023-06-22T07:01:40;12.70;;;10.10;;
68938;SDS011;59064;45.294;11.816;2023-06-22T07:04:06;12.10;;;9.60;;
68938;SDS011;59064;45.294;11.816;2023-06-22T07:06:32;12.10;;;8.90;;
68938;SDS011;59064;45.294;11.816;2023-06-22T07:08:58;12.80;;;9.40;;
68938;SDS011;59064;45.294;11.816;2023-06-22T07:11:24;15.80;;;10.60;;
68938;SDS011;59064;45.294;11.816;2023-06-22T07:13:50;13.70;;;10.50;;
68938;SDS011;59064;45.294;11.816;2023-06-22T07:16:15;13.40;;;9.80;;
68938;SDS011;59064;45.294;11.816;2023-06-22T07:18:41;13.00;;;10.20;;
68938;SDS011;59064;45.294;11.816;2023-06-22T07:21:06;14.70;;;11.50;;
68938;SDS011;59064;45.294;11.816;2023-06-22T07:23:32;13.30;;;10.80;;
68938;SDS011;59064;45.294;11.816;2023-06-22T07:25:58;14.30;;;10.50;;
68938;SDS011;59064;45.294;11.816;2023-06-22T07:28:26;10.50;;;8.70;;
68938;SDS011;59064;45.294;11.816;2023-06-22T07:30:52;14.10;;;9.40;;
68938;SDS011;59064;45.294;11.816;2023-06-22T07:33:18;14.40;;;10.00;;
68938;SDS011;59064;45.294;11.816;2023-06-22T07:35:44;12.50;;;10.20;;
68938;SDS011;59064;45.294;11.816;2023-06-22T07:38:09;18.00;;;10.20;;
68938;SDS011;59064;45.294;11.816;2023-06-22T07:40:35;10.80;;;9.00;;
68938;SDS011;59064;45.294;11.816;2023-06-22T07:43:01;9.70;;;8.10;;
68938;SDS011;59064;45.294;11.816;2023-06-22T07:45:26;12.20;;;8.60;;
68938;SDS011;59064;45.294;11.816;2023-06-22T07:47:52;12.80;;;8.70;;
68938;SDS011;59064;45.294;11.816;2023-06-22T07:50:17;10.90;;;8.20;;
68938;SDS011;59064;45.294;11.816;2023-06-22T07:52:43;10.50;;;8.10;;
68938;SDS011;59064;45.294;11.816;2023-06-22T07:55:08;12.40;;;8.60;;
68938;SDS011;59064;45.294;11.816;2023-06-22T07:57:33;11.00;;;9.30;;
68938;SDS011;59064;45.294;11.816;2023-06-22T07:59:59;11.70;;;8.00;;
68938;SDS011;59064;45.294;11.816;2023-06-22T08:02:26;12.90;;;7.90;;
68938;SDS011;59064;45.294;11.816;2023-06-22T08:04:51;13.60;;;8.40;;
68938;SDS011;59064;45.294;11.816;2023-06-22T08:07:17;11.00;;;7.50;;
68938;SDS011;59064;45.294;11.816;2023-06-22T08:09:48;12.40;;;9.30;;
68938;SDS011;59064;45.294;11.816;2023-06-22T08:12:14;14.60;;;8.00;;
68938;SDS011;59064;45.294;11.816;2023-06-22T08:14:39;11.10;;;7.60;;
68938;SDS011;59064;45.294;11.816;2023-06-22T08:17:07;10.50;;;7.30;;
68938;SDS011;59064;45.294;11.816;2023-06-22T08:19:32;10.30;;;7.60;;
68938;SDS011;59064;45.294;11.816;2023-06-22T08:21:58;11.90;;;8.00;;
68938;SDS011;59064;45.294;11.816;2023-06-22T08:24:23;13.80;;;8.50;;
68938;SDS011;59064;45.294;11.816;2023-06-22T08:26:51;8.90;;;6.70;;
68938;SDS011;59064;45.294;11.816;2023-06-22T08:29:16;13.10;;;7.70;;
68938;SDS011;59064;45.294;11.816;2023-06-22T08:31:42;11.70;;;7.10;;
68938;SDS011;59064;45.294;11.816;2023-06-22T08:34:07;12.10;;;8.00;;
68938;SDS011;59064;45.294;11.816;2023-06-22T08:36:33;12.00;;;7.90;;
68938;SDS011;59064;45.294;11.816;2023-06-22T08:39:08;10.50;;;7.20;;
68938;SDS011;59064;45.294;11.816;2023-06-22T08:41:33;8.90;;;6.50;;
68938;SDS011;59064;45.294;11.816;2023-06-22T08:43:59;13.00;;;8.00;;
68938;SDS011;59064;45.294;11.816;2023-06-22T08:46:24;10.10;;;7.70;;
68938;SDS011;59064;45.294;11.816;2023-06-22T08:48:55;12.50;;;7.20;;
68938;SDS011;59064;45.294;11.816;2023-06-22T08:51:22;11.10;;;7.90;;
68938;SDS011;59064;45.294;11.816;2023-06-22T08:53:48;11.40;;;7.60;;
68938;SDS011;59064;45.294;11.816;2023-06-22T08:56:13;10.20;;;7.10;;
68938;SDS011;59064;45.294;11.816;2023-06-22T08:58:39;8.10;;;6.20;;
68938;SDS011;59064;45.294;11.816;2023-06-22T09:01:04;9.10;;;6.70;;
68938;SDS011;59064;45.294;11.816;2023-06-22T09:03:30;11.10;;;7.20;;
68938;SDS011;59064;45.294;11.816;2023-06-22T09:05:57;12.90;;;6.90;;
68938;SDS011;59064;45.294;11.816;2023-06-22T09:08:23;9.70;;;6.50;;
68938;SDS011;59064;45.294;11.816;2023-06-22T09:10:48;10.40;;;7.60;;
68938;SDS011;59064;45.294;11.816;2023-06-22T09:13:14;13.20;;;7.00;;
68938;SDS011;59064;45.294;11.816;2023-06-22T09:15:40;9.30;;;6.30;;
68938;SDS011;59064;45.294;11.816;2023-06-22T09:18:05;10.20;;;7.00;;
68938;SDS011;59064;45.294;11.816;2023-06-22T09:20:33;8.80;;;5.90;;
68938;SDS011;59064;45.294;11.816;2023-06-22T09:22:59;9.60;;;6.70;;
68938;SDS011;59064;45.294;11.816;2023-06-22T09:25:24;10.10;;;6.70;;
68938;SDS011;59064;45.294;11.816;2023-06-22T09:27:49;9.20;;;7.30;;
68938;SDS011;59064;45.294;11.816;2023-06-22T09:30:15;9.50;;;7.00;;
68938;SDS011;59064;45.294;11.816;2023-06-22T09:32:40;10.70;;;7.30;;
68938;SDS011;59064;45.294;11.816;2023-06-22T09:35:07;12.10;;;8.30;;
68938;SDS011;59064;45.294;11.816;2023-06-22T09:37:34;12.90;;;7.70;;
68938;SDS011;59064;45.294;11.816;2023-06-22T09:40:00;10.30;;;7.90;;
68938;SDS011;59064;45.294;11.816;2023-06-22T09:42:25;9.00;;;6.70;;
68938;SDS011;59064;45.294;11.816;2023-06-22T09:44:51;10.50;;;7.40;;
68938;SDS011;59064;45.294;11.816;2023-06-22T09:47:16;8.60;;;6.30;;
68938;SDS011;59064;45.294;11.816;2023-06-22T09:49:42;9.80;;;7.40;;
68938;SDS011;59064;45.294;11.816;2023-06-22T09:52:07;9.40;;;6.90;;
68938;SDS011;59064;45.294;11.816;2023-06-22T09:54:33;8.90;;;7.10;;
68938;SDS011;59064;45.294;11.816;2023-06-22T09:56:58;10.40;;;7.20;;
68938;SDS011;59064;45.294;11.816;2023-06-22T09:59:23;9.50;;;7.70;;
68938;SDS011;59064;45.294;11.816;2023-06-22T10:01:49;9.20;;;7.80;;
68938;SDS011;59064;45.294;11.816;2023-06-22T10:04:14;10.20;;;7.20;;
68938;SDS011;59064;45.294;11.816;2023-06-22T10:06:40;8.90;;;7.10;;
68938;SDS011;59064;45.294;11.816;2023-06-22T10:09:06;9.30;;;7.20;;
68938;SDS011;59064;45.294;11.816;2023-06-22T10:11:34;11.40;;;7.50;;
68938;SDS011;59064;45.294;11.816;2023-06-22T10:14:01;8.80;;;7.20;;
68938;SDS011;59064;45.294;11.816;2023-06-22T10:16:32;11.60;;;8.10;;
68938;SDS011;59064;45.294;11.816;2023-06-22T10:19:00;12.10;;;7.50;;
68938;SDS011;59064;45.294;11.816;2023-06-22T10:21:25;9.70;;;7.20;;
68938;SDS011;59064;45.294;11.816;2023-06-22T10:23:53;10.30;;;8.10;;
68938;SDS011;59064;45.294;11.816;2023-06-22T10:26:19;10.60;;;7.20;;
68938;SDS011;59064;45.294;11.816;2023-06-22T10:28:44;8.10;;;6.40;;
68938;SDS011;59064;45.294;11.816;2023-06-22T10:31:09;10.80;;;7.20;;
68938;SDS011;59064;45.294;11.816;2023-06-22T10:33:35;8.80;;;6.10;;
68938;SDS011;59064;45.294;11.816;2023-06-22T10:36:00;13.10;;;6.20;;
68938;SDS011;59064;45.294;11.816;2023-06-22T10:38:26;9.20;;;6.10;;
68938;SDS011;59064;45.294;11.816;2023-06-22T10:40:52;10.70;;;6.50;;
68938;SDS011;59064;45.294;11.816;2023-06-22T10:43:18;11.40;;;6.60;;
68938;SDS011;59064;45.294;11.816;2023-06-22T10:45:43;12.50;;;6.80;;
68938;SDS011;59064;45.294;11.816;2023-06-22T10:48:10;8.80;;;5.60;;
68938;SDS011;59064;45.294;11.816;2023-06-22T10:50:35;9.40;;;6.20;;
68938;SDS011;59064;45.294;11.816;2023-06-22T10:53:01;7.50;;;5.70;;
68938;SDS011;59064;45.294;11.816;2023-06-22T10:55:26;9.50;;;6.50;;
68938;SDS011;59064;45.294;11.816;2023-06-22T10:57:52;9.90;;;6.30;;
68938;SDS011;59064;45.294;11.816;2023-06-22T11:00:17;7.90;;;6.20;;
68938;SDS011;59064;45.294;11.816;2023-06-22T11:02:43;10.60;;;7.10;;
68938;SDS011;59064;45.294;11.816;2023-06-22T11:05:09;7.50;;;6.00;;
68938;SDS011;59064;45.294;11.816;2023-06-22T11:07:34;8.90;;;6.40;;
68938;SDS011;59064;45.294;11.816;2023-06-22T11:10:00;7.70;;;5.30;;
68938;SDS011;59064;45.294;11.816;2023-06-22T11:12:25;10.00;;;5.70;;
68938;SDS011;59064;45.294;11.816;2023-06-22T11:14:51;8.50;;;5.30;;
68938;SDS011;59064;45.294;11.816;2023-06-22T11:17:17;7.50;;;4.80;;
68938;SDS011;59064;45.294;11.816;2023-06-22T11:19:43;9.10;;;6.20;;
68938;SDS011;59064;45.294;11.816;2023-06-22T11:22:09;7.80;;;5.80;;
68938;SDS011;59064;45.294;11.816;2023-06-22T11:24:35;6.90;;;5.20;;
68938;SDS011;59064;45.294;11.816;2023-06-22T11:27:01;8.30;;;5.60;;
68938;SDS011;59064;45.294;11.816;2023-06-22T11:29:26;10.10;;;6.00;;
68938;SDS011;59064;45.294;11.816;2023-06-22T11:31:52;10.10;;;5.60;;
68938;SDS011;59064;45.294;11.816;2023-06-22T11:34:17;10.30;;;6.00;;
68938;SDS011;59064;45.294;11.816;2023-06-22T11:36:44;7.10;;;5.20;;
68938;SDS011;59064;45.294;11.816;2023-06-22T11:39:10;9.80;;;5.80;;
68938;SDS011;59064;45.294;11.816;2023-06-22T11:41:36;7.00;;;5.40;;
68938;SDS011;59064;45.294;11.816;2023-06-22T11:44:02;8.50;;;5.90;;
68938;SDS011;59064;45.294;11.816;2023-06-22T11:46:29;9.20;;;5.50;;
68938;SDS011;59064;45.294;11.816;2023-06-22T11:48:55;11.30;;;6.10;;
68938;SDS011;59064;45.294;11.816;2023-06-22T11:51:20;8.00;;;5.90;;
68938;SDS011;59064;45.294;11.816;2023-06-22T11:53:45;8.70;;;5.40;;
68938;SDS011;59064;45.294;11.816;2023-06-22T11:56:11;10.10;;;5.70;;
68938;SDS011;59064;45.294;11.816;2023-06-22T11:58:36;9.40;;;5.50;;
68938;SDS011;59064;45.294;11.816;2023-06-22T12:01:02;8.50;;;5.30;;
68938;SDS011;59064;45.294;11.816;2023-06-22T12:03:27;9.30;;;5.70;;
68938;SDS011;59064;45.294;11.816;2023-06-22T12:05:54;10.10;;;5.40;;
68938;SDS011;59064;45.294;11.816;2023-06-22T12:08:19;8.10;;;5.90;;
68938;SDS011;59064;45.294;11.816;2023-06-22T12:10:45;10.10;;;6.00;;
68938;SDS011;59064;45.294;11.816;2023-06-22T12:13:11;8.70;;;5.70;;
68938;SDS011;59064;45.294;11.816;2023-06-22T12:15:36;8.50;;;5.70;;
68938;SDS011;59064;45.294;11.816;2023-06-22T12:18:02;6.50;;;5.10;;
68938;SDS011;59064;45.294;11.816;2023-06-22T12:20:27;9.00;;;5.70;;
68938;SDS011;59064;45.294;11.816;2023-06-22T12:22:53;9.60;;;5.60;;
68938;SDS011;59064;45.294;11.816;2023-06-22T12:25:21;8.20;;;5.70;;
68938;SDS011;59064;45.294;11.816;2023-06-22T12:27:47;9.00;;;5.40;;
68938;SDS011;59064;45.294;11.816;2023-06-22T12:30:13;10.10;;;5.80;;
68938;SDS011;59064;45.294;11.816;2023-06-22T12:32:39;7.50;;;5.50;;
68938;SDS011;59064;45.294;11.816;2023-06-22T12:35:04;7.30;;;5.40;;
68938;SDS011;59064;45.294;11.816;2023-06-22T12:37:32;10.20;;;5.60;;
68938;SDS011;59064;45.294;11.816;2023-06-22T12:39:58;8.10;;;5.50;;
68938;SDS011;59064;45.294;11.816;2023-06-22T12:42:24;9.00;;;5.40;;
68938;SDS011;59064;45.294;11.816;2023-06-22T12:44:51;10.20;;;5.10;;
68938;SDS011;59064;45.294;11.816;2023-06-22T12:47:16;8.50;;;5.70;;
68938;SDS011;59064;45.294;11.816;2023-06-22T12:49:42;6.30;;;5.00;;
68938;SDS011;59064;45.294;11.816;2023-06-22T12:52:10;7.40;;;5.80;;
68938;SDS011;59064;45.294;11.816;2023-06-22T12:54:38;9.40;;;5.60;;
68938;SDS011;59064;45.294;11.816;2023-06-22T12:57:04;10.00;;;5.30;;
68938;SDS011;59064;45.294;11.816;2023-06-22T12:59:29;10.00;;;5.40;;
68938;SDS011;59064;45.294;11.816;2023-06-22T13:01:55;6.60;;;5.30;;
68938;SDS011;59064;45.294;11.816;2023-06-22T13:04:20;9.00;;;5.60;;
68938;SDS011;59064;45.294;11.816;2023-06-22T13:06:46;8.60;;;5.50;;
68938;SDS011;59064;45.294;11.816;2023-06-22T13:09:12;8.30;;;5.10;;
68938;SDS011;59064;45.294;11.816;2023-06-22T13:11:38;11.20;;;5.70;;
68938;SDS011;59064;45.294;11.816;2023-06-22T13:14:04;8.50;;;5.40;;
68938;SDS011;59064;45.294;11.816;2023-06-22T13:16:29;7.60;;;5.40;;
68938;SDS011;59064;45.294;11.816;2023-06-22T13:18:55;8.90;;;5.20;;
68938;SDS011;59064;45.294;11.816;2023-06-22T13:21:20;8.20;;;4.90;;
68938;SDS011;59064;45.294;11.816;2023-06-22T13:23:45;9.70;;;5.80;;
68938;SDS011;59064;45.294;11.816;2023-06-22T13:26:11;8.10;;;5.60;;
68938;SDS011;59064;45.294;11.816;2023-06-22T13:28:36;7.90;;;5.60;;
68938;SDS011;59064;45.294;11.816;2023-06-22T13:31:02;8.90;;;5.50;;
68938;SDS011;59064;45.294;11.816;2023-06-22T13:33:27;8.50;;;4.40;;
68938;SDS011;59064;45.294;11.816;2023-06-22T13:35:53;8.80;;;5.50;;
68938;SDS011;59064;45.294;11.816;2023-06-22T13:38:18;8.60;;;5.20;;
68938;SDS011;59064;45.294;11.816;2023-06-22T13:40:44;8.80;;;5.50;;
68938;SDS011;59064;45.294;11.816;2023-06-22T13:43:09;8.80;;;5.80;;
68938;SDS011;59064;45.294;11.816;2023-06-22T13:45:35;9.50;;;5.50;;
68938;SDS011;59064;45.294;11.816;2023-06-22T13:48:01;12.90;;;5.40;;
68938;SDS011;59064;45.294;11.816;2023-06-22T13:50:26;10.00;;;5.10;;
68938;SDS011;59064;45.294;11.816;2023-06-22T13:52:54;10.00;;;5.90;;
68938;SDS011;59064;45.294;11.816;2023-06-22T13:55:19;10.40;;;5.50;;
68938;SDS011;59064;45.294;11.816;2023-06-22T13:57:46;11.40;;;5.90;;
68938;SDS011;59064;45.294;11.816;2023-06-22T14:00:11;9.10;;;5.40;;
68938;SDS011;59064;45.294;11.816;2023-06-22T14:02:37;7.90;;;5.40;;
68938;SDS011;59064;45.294;11.816;2023-06-22T14:05:05;8.20;;;5.10;;
68938;SDS011;59064;45.294;11.816;2023-06-22T14:07:30;9.40;;;5.70;;
68938;SDS011;59064;45.294;11.816;2023-06-22T14:09:56;9.80;;;5.40;;
68938;SDS011;59064;45.294;11.816;2023-06-22T14:12:23;8.20;;;5.00;;
68938;SDS011;59064;45.294;11.816;2023-06-22T14:14:48;7.20;;;5.20;;
68938;SDS011;59064;45.294;11.816;2023-06-22T14:17:14;7.70;;;5.40;;
68938;SDS011;59064;45.294;11.816;2023-06-22T14:19:39;11.20;;;5.70;;
68938;SDS011;59064;45.294;11.816;2023-06-22T14:22:05;8.70;;;5.60;;
68938;SDS011;59064;45.294;11.816;2023-06-22T14:24:30;14.70;;;5.70;;
68938;SDS011;59064;45.294;11.816;2023-06-22T14:26:56;10.90;;;5.70;;